createdAt,value
2023-03-11T00:00:56.799Z,60.93
2023-03-11T00:03:29.619Z,61.36
2023-03-11T00:06:01.991Z,61.33
2023-03-11T00:08:31.318Z,61.34
2023-03-11T00:11:00.793Z,61.79
2023-03-11T00:13:30.036Z,61.74
2023-03-11T00:16:00.876Z,61.75
2023-03-11T00:18:31.708Z,62.31
2023-03-11T00:21:01.309Z,62.42
2023-03-11T00:23:30.321Z,62.43
2023-03-11T00:26:01.304Z,62.68
2023-03-11T00:28:30.460Z,62.75
2023-03-11T00:30:59.940Z,62.99
2023-03-11T00:33:29.661Z,63.15
2023-03-11T00:35:58.688Z,63.50
2023-03-11T00:38:27.939Z,64.05
2023-03-11T00:40:56.469Z,64.08
2023-03-11T00:43:25.692Z,64.02
2023-03-11T00:45:54.377Z,63.76
2023-03-11T00:48:22.955Z,64.08
2023-03-11T00:50:52.028Z,64.24
2023-03-11T00:53:20.781Z,64.34
2023-03-11T00:55:49.432Z,64.97
2023-03-11T00:58:18.822Z,64.75
2023-03-11T01:00:50.152Z,64.45
2023-03-11T01:03:18.611Z,64.66
2023-03-11T01:05:48.179Z,64.89
2023-03-11T01:08:16.733Z,65.18
2023-03-11T01:10:45.240Z,65.43
2023-03-11T01:13:14.071Z,64.50
2023-03-11T01:15:43.109Z,64.51
2023-03-11T01:18:11.741Z,64.52
2023-03-11T01:20:40.389Z,65.16
2023-03-11T01:23:09.307Z,64.70
2023-03-11T01:25:38.961Z,64.56
2023-03-11T01:28:08.616Z,65.07
2023-03-11T01:30:38.885Z,65.62
2023-03-11T01:33:09.740Z,65.81
2023-03-11T01:35:42.494Z,65.73
2023-03-11T01:38:11.971Z,65.88
2023-03-11T01:40:43.597Z,65.45
2023-03-11T01:43:54.669Z,65.65
2023-03-11T01:46:52.520Z,66.19
2023-03-11T01:49:25.355Z,66.84
2023-03-11T01:52:08.102Z,66.91
2023-03-11T01:54:42.502Z,67.21
2023-03-11T01:57:14.345Z,67.45
2023-03-11T01:59:51.338Z,67.61
2023-03-11T02:02:31.343Z,67.41
2023-03-11T02:05:02.611Z,67.29
2023-03-11T02:07:31.593Z,67.02
2023-03-11T02:10:02.153Z,67.39
2023-03-11T02:12:35.587Z,67.33
2023-03-11T02:15:07.009Z,67.37
2023-03-11T02:17:37.745Z,67.44
2023-03-11T02:20:47.406Z,67.53
2023-03-11T02:23:18.206Z,67.88
2023-03-11T02:26:09.804Z,67.91
2023-03-11T02:28:40.988Z,68.05
2023-03-11T02:31:10.684Z,68.05
2023-03-11T02:33:39.821Z,67.51
2023-03-11T02:36:32.885Z,67.70
2023-03-11T02:39:02.123Z,67.53
2023-03-11T02:41:33.917Z,67.64
2023-03-11T02:44:03.406Z,67.62
2023-03-11T02:46:32.424Z,67.89
2023-03-11T02:49:02.113Z,67.77
2023-03-11T02:51:30.741Z,67.40
2023-03-11T02:54:03.656Z,67.40
2023-03-11T02:56:32.550Z,67.66
2023-03-11T02:59:01.775Z,67.91
2023-03-11T03:01:30.490Z,68.14
2023-03-11T03:03:59.271Z,67.76
2023-03-11T03:06:28.888Z,67.78
2023-03-11T03:08:57.841Z,67.72
2023-03-11T03:11:26.677Z,67.67
2023-03-11T03:13:55.207Z,68.53
2023-03-11T03:16:23.707Z,68.21
2023-03-11T03:18:52.820Z,68.79
2023-03-11T03:21:21.364Z,68.56
2023-03-11T03:23:49.991Z,68.78
2023-03-11T03:26:18.549Z,68.86
2023-03-11T03:28:48.553Z,68.72
2023-03-11T03:31:18.375Z,68.84
2023-03-11T03:33:47.162Z,68.26
2023-03-11T03:36:16.395Z,68.19
2023-03-11T03:38:48.648Z,68.75
2023-03-11T03:41:17.777Z,68.75
2023-03-11T03:43:46.486Z,69.25
2023-03-11T03:46:15.743Z,69.74
2023-03-11T03:48:46.898Z,69.74
2023-03-11T03:51:15.713Z,71.32
2023-03-11T03:53:52.111Z,70.48
2023-03-11T03:56:20.632Z,69.87
2023-03-11T03:58:49.066Z,69.81
2023-03-11T04:01:17.558Z,70.05
2023-03-11T04:03:46.108Z,70.41
2023-03-11T04:06:19.894Z,70.51
2023-03-11T04:08:52.349Z,69.98
2023-03-11T04:11:22.690Z,69.74
2023-03-11T04:13:51.432Z,69.42
2023-03-11T04:16:22.574Z,69.60
2023-03-11T04:18:51.828Z,69.38
2023-03-11T04:21:20.951Z,69.30
2023-03-11T04:23:49.787Z,69.33
2023-03-11T04:26:18.726Z,69.17
2023-03-11T04:28:47.352Z,69.00
2023-03-11T04:31:16.320Z,69.07
2023-03-11T04:33:44.794Z,69.25
2023-03-11T04:36:14.113Z,69.99
2023-03-11T04:38:42.938Z,70.19
2023-03-11T04:41:12.422Z,69.99
2023-03-11T04:43:42.199Z,70.12
2023-03-11T04:46:10.783Z,70.51
2023-03-11T04:48:39.928Z,70.78
2023-03-11T04:51:10.002Z,70.74
2023-03-11T04:53:38.840Z,70.59
2023-03-11T04:56:08.288Z,71.11
2023-03-11T04:58:38.421Z,71.08
2023-03-11T05:01:07.829Z,71.51
2023-03-11T05:03:37.175Z,71.75
2023-03-11T05:06:05.987Z,71.89
2023-03-11T05:08:35.107Z,72.53
2023-03-11T05:11:04.356Z,72.73
2023-03-11T05:13:33.592Z,72.83
2023-03-11T05:16:02.629Z,73.60
2023-03-11T05:18:32.652Z,73.77
2023-03-11T05:21:01.323Z,74.58
2023-03-11T05:23:31.866Z,74.84
2023-03-11T05:26:01.057Z,75.36
2023-03-11T05:28:30.019Z,75.44
2023-03-11T05:30:58.614Z,76.23
2023-03-11T05:33:27.102Z,76.98
2023-03-11T05:35:55.689Z,77.44
2023-03-11T05:38:24.930Z,78.13
2023-03-11T05:40:53.913Z,78.05
2023-03-11T05:43:22.348Z,78.28
2023-03-11T05:45:54.631Z,78.83
2023-03-11T05:48:23.616Z,79.10
2023-03-11T05:50:52.082Z,79.30
2023-03-11T05:53:21.963Z,79.80
2023-03-11T05:56:00.728Z,79.83
2023-03-11T05:58:30.167Z,79.85
2023-03-11T06:01:00.332Z,80.16
2023-03-11T06:03:28.848Z,80.28
2023-03-11T06:05:57.269Z,80.36
2023-03-11T06:08:25.747Z,80.45
2023-03-11T06:11:05.252Z,80.23
2023-03-11T06:13:35.010Z,80.35
2023-03-11T06:16:05.359Z,80.56
2023-03-11T06:18:34.887Z,80.39
2023-03-11T06:21:04.369Z,80.49
2023-03-11T06:23:33.567Z,80.46
2023-03-11T06:26:05.290Z,80.60
2023-03-11T06:28:37.717Z,80.53
2023-03-11T06:31:26.429Z,80.38
2023-03-11T06:33:56.816Z,80.37
2023-03-11T06:36:26.437Z,79.89
2023-03-11T06:38:55.461Z,79.43
2023-03-11T06:41:26.048Z,79.20
2023-03-11T06:43:55.012Z,79.24
2023-03-11T06:46:24.044Z,79.13
2023-03-11T06:48:54.734Z,78.75
2023-03-11T06:51:24.046Z,78.65
2023-03-11T06:53:53.554Z,78.28
2023-03-11T06:56:23.967Z,77.33
2023-03-11T06:59:00.529Z,77.31
2023-03-11T07:01:33.073Z,77.43
2023-03-11T07:04:03.581Z,77.06
2023-03-11T07:06:32.138Z,77.15
2023-03-11T07:09:08.226Z,76.79
2023-03-11T07:11:39.015Z,76.62
2023-03-11T07:14:23.383Z,76.29
2023-03-11T07:16:54.831Z,76.21
2023-03-11T07:19:28.394Z,75.22
2023-03-11T07:21:56.910Z,74.92
2023-03-11T07:24:25.240Z,75.03
2023-03-11T07:26:53.605Z,74.29
2023-03-11T07:29:22.008Z,73.88
2023-03-11T07:31:50.470Z,73.17
2023-03-11T07:34:19.038Z,72.86
2023-03-11T07:36:47.561Z,72.53
2023-03-11T07:39:18.876Z,72.46
2023-03-11T07:41:47.771Z,72.39
2023-03-11T07:44:18.196Z,71.29
2023-03-11T07:46:47.282Z,70.51
2023-03-11T07:49:16.450Z,69.79
2023-03-11T07:51:45.053Z,69.16
2023-03-11T07:54:14.016Z,68.88
2023-03-11T07:56:42.526Z,67.46
2023-03-11T07:59:11.089Z,67.56
2023-03-11T08:01:41.497Z,66.75
2023-03-11T08:04:14.454Z,65.29
2023-03-11T08:06:46.171Z,62.33
2023-03-11T08:09:15.163Z,61.55
2023-03-11T08:11:43.652Z,59.07
2023-03-11T08:14:12.093Z,56.45
2023-03-11T08:16:41.365Z,54.17
2023-03-11T08:19:12.722Z,49.77
2023-03-11T08:21:41.175Z,46.79
2023-03-11T08:24:14.215Z,45.49
2023-03-11T08:26:42.848Z,42.00
2023-03-11T08:29:11.394Z,40.30
2023-03-11T08:31:39.860Z,40.95
2023-03-11T08:34:10.904Z,39.65
2023-03-11T08:36:39.336Z,40.19
2023-03-11T08:39:08.100Z,38.94
2023-03-11T08:41:36.578Z,38.60
2023-03-11T08:44:05.490Z,37.19
2023-03-11T08:46:38.799Z,35.40
2023-03-11T08:49:07.621Z,33.59
2023-03-11T08:51:36.805Z,32.14
2023-03-11T08:54:06.219Z,32.54
2023-03-11T08:56:34.643Z,32.90
2023-03-11T08:59:03.359Z,32.97
2023-03-11T09:01:31.805Z,34.04
2023-03-11T09:04:00.288Z,34.18
2023-03-11T09:06:30.611Z,33.61
2023-03-11T09:08:59.217Z,33.11
2023-03-11T09:11:27.665Z,33.08
2023-03-11T09:13:56.027Z,33.06
2023-03-11T09:16:25.632Z,33.72
2023-03-11T09:18:54.177Z,33.61
2023-03-11T09:21:22.978Z,33.68
2023-03-11T09:23:51.456Z,32.83
2023-03-11T09:26:19.904Z,32.84
2023-03-11T09:28:49.580Z,31.52
2023-03-11T09:31:18.454Z,31.28
2023-03-11T09:33:47.684Z,31.24
2023-03-11T09:36:19.007Z,31.70
2023-03-11T09:38:48.521Z,31.93
2023-03-11T09:41:27.470Z,31.76
2023-03-11T09:44:16.318Z,30.80
2023-03-11T09:47:19.721Z,31.14
2023-03-11T09:50:15.341Z,31.04
2023-03-11T09:53:05.214Z,31.40
2023-03-11T09:56:01.856Z,30.98
2023-03-11T09:58:50.800Z,28.41
2023-03-11T10:01:35.295Z,29.04
2023-03-11T10:04:16.897Z,29.15
2023-03-11T10:06:48.120Z,28.31
2023-03-11T10:09:51.909Z,28.41
2023-03-11T10:12:29.191Z,28.57
2023-03-11T10:15:39.660Z,29.43
2023-03-11T10:18:31.542Z,29.62
2023-03-11T10:21:36.407Z,29.91
2023-03-11T10:24:19.213Z,30.88
2023-03-11T10:26:57.034Z,31.69
2023-03-11T10:30:04.257Z,32.49
2023-03-11T10:32:46.874Z,33.33
2023-03-11T10:35:39.719Z,33.04
2023-03-11T10:38:20.814Z,32.85
2023-03-11T10:40:54.106Z,31.47
2023-03-11T10:43:46.068Z,31.28
2023-03-11T10:46:26.680Z,31.43
2023-03-11T10:48:55.634Z,30.06
2023-03-11T10:51:35.491Z,29.35
2023-03-11T10:54:04.871Z,29.23
2023-03-11T10:56:37.674Z,28.87
2023-03-11T10:59:24.312Z,29.98
2023-03-11T11:02:00.927Z,29.46
2023-03-11T11:04:36.502Z,28.66
2023-03-11T11:07:29.975Z,28.61
2023-03-11T11:10:21.516Z,28.91
2023-03-11T11:13:19.378Z,28.75
2023-03-11T11:15:55.683Z,29.27
2023-03-11T11:18:29.263Z,29.31
2023-03-11T11:21:26.360Z,29.66
2023-03-11T11:24:12.395Z,29.48
2023-03-11T11:26:40.789Z,29.61
2023-03-11T11:29:12.514Z,29.43
2023-03-11T11:31:46.453Z,29.20
2023-03-11T11:34:35.010Z,29.46
2023-03-11T11:37:05.925Z,29.82
2023-03-11T11:39:59.757Z,30.51
2023-03-11T11:42:31.354Z,30.97
2023-03-11T11:45:04.715Z,31.53
2023-03-11T11:47:39.719Z,32.19
2023-03-11T11:50:16.584Z,32.32
2023-03-11T11:52:51.495Z,32.58
2023-03-11T11:55:25.590Z,33.10
2023-03-11T11:57:54.414Z,33.27
2023-03-11T12:00:31.143Z,33.35
2023-03-11T12:03:27.357Z,33.53
2023-03-11T12:06:06.319Z,33.66
2023-03-11T12:09:17.460Z,34.07
2023-03-11T12:11:52.658Z,34.00
2023-03-11T12:14:31.388Z,34.76
2023-03-11T12:17:04.022Z,35.09
2023-03-11T12:19:40.334Z,35.67
2023-03-11T12:22:39.162Z,35.97
2023-03-11T12:25:44.254Z,35.75
2023-03-11T12:28:12.622Z,35.74
2023-03-11T12:30:51.058Z,34.97
2023-03-11T12:33:42.556Z,35.09
2023-03-11T12:36:35.705Z,34.64
2023-03-11T12:39:07.336Z,35.67
2023-03-11T12:41:42.265Z,34.69
2023-03-11T12:44:30.855Z,34.36
2023-03-11T12:47:02.748Z,34.90
2023-03-11T12:49:33.894Z,33.36
2023-03-11T12:52:11.820Z,32.21
2023-03-11T12:54:45.784Z,31.64
2023-03-11T12:57:20.326Z,31.78
2023-03-11T13:00:09.991Z,32.19
2023-03-11T13:03:13.812Z,32.86
2023-03-11T13:05:52.237Z,33.82
2023-03-11T13:08:48.797Z,33.68
2023-03-11T13:11:48.213Z,34.43
2023-03-11T13:14:35.755Z,34.47
2023-03-11T13:17:25.960Z,35.30
2023-03-11T13:19:57.075Z,36.09
2023-03-11T13:22:52.753Z,36.46
2023-03-11T13:25:32.224Z,37.31
2023-03-11T13:28:27.455Z,37.87
2023-03-11T13:31:26.315Z,38.44
2023-03-11T13:33:56.255Z,39.48
2023-03-11T13:36:46.213Z,40.14
2023-03-11T13:39:36.933Z,41.01
2023-03-11T13:42:17.867Z,41.65
2023-03-11T13:44:47.737Z,41.83
2023-03-11T13:47:19.308Z,42.39
2023-03-11T13:49:50.794Z,42.71
2023-03-11T13:52:26.653Z,43.26
2023-03-11T13:55:08.359Z,43.66
2023-03-11T13:57:38.410Z,44.05
2023-03-11T14:00:17.744Z,44.00
2023-03-11T14:02:55.381Z,44.42
2023-03-11T14:05:29.591Z,44.01
2023-03-11T14:08:23.538Z,44.54
2023-03-11T14:10:56.820Z,44.77
2023-03-11T14:13:30.008Z,44.92
2023-03-11T14:15:58.353Z,44.48
2023-03-11T14:18:28.204Z,43.94
2023-03-11T14:20:57.534Z,42.88
2023-03-11T14:23:48.975Z,41.55
2023-03-11T14:26:22.484Z,39.46
2023-03-11T14:28:57.277Z,38.36
2023-03-11T14:31:40.915Z,38.14
2023-03-11T14:34:20.859Z,38.38
2023-03-11T14:36:54.454Z,38.35
2023-03-11T14:39:30.282Z,37.68
2023-03-11T14:42:07.912Z,37.69
2023-03-11T14:44:40.703Z,37.93
2023-03-11T14:47:32.253Z,38.40
2023-03-11T14:50:01.332Z,38.61
2023-03-11T14:52:37.461Z,37.94
2023-03-11T14:55:27.136Z,39.61
2023-03-11T14:58:18.822Z,38.50
2023-03-11T15:00:54.163Z,38.58
2023-03-11T15:03:23.995Z,39.00
2023-03-11T15:05:58.656Z,39.36
2023-03-11T15:08:31.242Z,40.25
2023-03-11T15:11:06.391Z,40.14
2023-03-11T15:13:36.762Z,39.36
2023-03-11T15:16:08.040Z,39.62
2023-03-11T15:18:38.166Z,39.94
2023-03-11T15:21:20.143Z,40.52
2023-03-11T15:23:56.855Z,41.21
2023-03-11T15:26:28.616Z,42.02
2023-03-11T15:28:58.584Z,42.37
2023-03-11T15:31:31.525Z,43.06
2023-03-11T15:34:23.909Z,43.00
2023-03-11T15:36:53.060Z,43.50
2023-03-11T15:39:33.214Z,43.93
2023-03-11T15:42:07.504Z,44.48
2023-03-11T15:44:41.599Z,44.49
2023-03-11T15:47:15.250Z,45.42
2023-03-11T15:49:44.180Z,45.59
2023-03-11T15:52:13.126Z,46.31
2023-03-11T15:54:42.255Z,46.57
2023-03-11T15:57:22.930Z,46.94
2023-03-11T15:59:53.651Z,47.26
2023-03-11T16:02:24.861Z,47.65
2023-03-11T16:04:53.429Z,47.68
2023-03-11T16:07:36.757Z,47.78
2023-03-11T16:10:08.927Z,48.09
2023-03-11T16:12:37.905Z,48.20
2023-03-11T16:15:07.490Z,48.32
2023-03-11T16:17:49.010Z,48.52
2023-03-11T16:20:20.082Z,48.52
2023-03-11T16:22:50.571Z,49.04
2023-03-11T16:25:26.750Z,48.91
2023-03-11T16:27:56.658Z,48.77
2023-03-11T16:30:27.588Z,48.89
2023-03-11T16:32:55.899Z,49.03
2023-03-11T16:35:24.722Z,49.06
2023-03-11T16:37:53.686Z,49.13
2023-03-11T16:40:27.557Z,49.34
2023-03-11T16:43:02.484Z,49.40
2023-03-11T16:45:31.214Z,49.45
2023-03-11T16:47:59.743Z,49.52
2023-03-11T16:50:28.237Z,48.89
2023-03-11T16:52:57.591Z,49.38
2023-03-11T16:55:27.867Z,49.20
2023-03-11T16:57:57.618Z,49.15
2023-03-11T17:00:26.260Z,49.83
2023-03-11T17:02:54.605Z,49.78
2023-03-11T17:05:23.251Z,49.48
2023-03-11T17:08:00.329Z,49.68
2023-03-11T17:10:29.224Z,49.67
2023-03-11T17:12:57.723Z,49.82
2023-03-11T17:15:26.068Z,49.54
2023-03-11T17:17:54.806Z,49.74
2023-03-11T17:20:23.476Z,49.71
2023-03-11T17:22:51.890Z,49.70
2023-03-11T17:25:20.385Z,49.71
2023-03-11T17:27:49.032Z,49.50
2023-03-11T17:30:30.448Z,49.67
2023-03-11T17:33:04.726Z,49.77
2023-03-11T17:35:33.195Z,49.81
2023-03-11T17:38:01.625Z,49.41
2023-03-11T17:40:31.755Z,49.44
2023-03-11T17:43:00.680Z,49.49
2023-03-11T17:45:29.156Z,49.76
2023-03-11T17:47:57.505Z,49.51
2023-03-11T17:50:26.588Z,49.12
2023-03-11T17:52:56.673Z,49.13
2023-03-11T17:55:25.133Z,49.36
2023-03-11T17:57:53.636Z,49.45
2023-03-11T18:00:22.602Z,49.44
2023-03-11T18:02:53.793Z,49.42
2023-03-11T18:05:22.374Z,49.27
2023-03-11T18:07:50.888Z,49.19
2023-03-11T18:10:19.542Z,49.30
2023-03-11T18:12:48.344Z,49.20
2023-03-11T18:15:19.597Z,49.80
2023-03-11T18:17:48.908Z,50.80
2023-03-11T18:20:17.535Z,50.89
2023-03-11T18:22:47.265Z,50.84
2023-03-11T18:25:15.876Z,50.61
2023-03-11T18:27:44.764Z,50.69
2023-03-11T18:30:14.620Z,51.09
2023-03-11T18:32:43.181Z,51.24
2023-03-11T18:35:11.763Z,51.85
2023-03-11T18:37:40.960Z,52.53
2023-03-11T18:40:10.440Z,52.99
2023-03-11T18:42:38.742Z,53.39
2023-03-11T18:45:07.612Z,53.00
2023-03-11T18:47:35.985Z,53.19
2023-03-11T18:50:05.398Z,53.48
2023-03-11T18:52:33.755Z,53.51
2023-03-11T18:55:02.129Z,54.38
2023-03-11T18:57:30.528Z,54.11
2023-03-11T18:59:58.857Z,54.45
2023-03-11T19:02:27.262Z,54.29
2023-03-11T19:04:55.794Z,54.56
2023-03-11T19:07:24.215Z,54.94
2023-03-11T19:09:52.540Z,55.24
2023-03-11T19:12:20.932Z,55.02
2023-03-11T19:14:49.282Z,55.42
2023-03-11T19:17:18.461Z,55.85
2023-03-11T19:19:47.060Z,55.89
2023-03-11T19:22:15.572Z,55.84
2023-03-11T19:24:43.959Z,56.33
2023-03-11T19:27:12.373Z,56.04
2023-03-11T19:29:40.878Z,56.48
2023-03-11T19:32:09.289Z,56.56
2023-03-11T19:34:38.590Z,56.76
2023-03-11T19:37:07.064Z,57.20
2023-03-11T19:39:35.448Z,57.00
2023-03-11T19:42:03.830Z,57.08
2023-03-11T19:44:32.221Z,57.31
2023-03-11T19:47:00.724Z,56.74
2023-03-11T19:49:29.140Z,57.80
2023-03-11T19:51:57.657Z,58.39
2023-03-11T19:54:26.113Z,60.56
2023-03-11T19:56:54.539Z,61.39
2023-03-11T19:59:23.698Z,61.45
2023-03-11T20:01:52.110Z,62.65
2023-03-11T20:04:20.606Z,62.63
2023-03-11T20:06:49.093Z,64.13
2023-03-11T20:09:17.950Z,62.17
2023-03-11T20:11:46.540Z,64.35
2023-03-11T20:14:15.158Z,64.13
2023-03-11T20:16:43.696Z,64.54
2023-03-11T20:19:12.914Z,64.79
2023-03-11T20:21:42.057Z,65.78
2023-03-11T20:24:11.451Z,65.29
2023-03-11T20:26:39.893Z,67.49
2023-03-11T20:29:08.379Z,66.84
2023-03-11T20:31:37.275Z,66.26
2023-03-11T20:34:05.873Z,65.94
2023-03-11T20:36:34.623Z,66.22
2023-03-11T20:39:06.435Z,66.50
2023-03-11T20:41:39.217Z,66.04
2023-03-11T20:44:11.180Z,66.28
2023-03-11T20:46:40.086Z,66.92
2023-03-11T20:49:08.781Z,67.50
2023-03-11T20:51:40.291Z,67.71
2023-03-11T20:54:29.965Z,68.14
2023-03-11T20:56:58.436Z,68.27
2023-03-11T20:59:27.014Z,68.28
2023-03-11T21:01:55.520Z,68.23
2023-03-11T21:04:24.821Z,68.36
2023-03-11T21:06:55.009Z,69.58
2023-03-11T21:09:24.211Z,69.54
2023-03-11T21:11:52.734Z,69.71
2023-03-11T21:14:21.154Z,68.76
2023-03-11T21:16:49.918Z,67.89
2023-03-11T21:19:18.672Z,67.69
2023-03-11T21:21:47.406Z,67.37
2023-03-11T21:24:16.256Z,66.81
2023-03-11T21:26:45.319Z,66.83
2023-03-11T21:29:14.233Z,66.18
2023-03-11T21:31:42.973Z,66.27
2023-03-11T21:34:12.108Z,66.87
2023-03-11T21:36:40.823Z,67.04
2023-03-11T21:39:10.378Z,66.78
2023-03-11T21:41:40.124Z,66.50
2023-03-11T21:44:08.845Z,66.12
2023-03-11T21:46:37.314Z,65.68
2023-03-11T21:49:06.089Z,64.98
2023-03-11T21:51:34.659Z,65.02
2023-03-11T21:54:05.445Z,65.00
2023-03-11T21:56:33.866Z,64.73
2023-03-11T21:59:03.988Z,64.06
2023-03-11T22:01:34.154Z,64.07
2023-03-11T22:04:03.027Z,64.23
2023-03-11T22:06:33.574Z,64.16
2023-03-11T22:09:03.982Z,64.00
2023-03-11T22:11:32.599Z,63.28
2023-03-11T22:14:01.380Z,62.78
2023-03-11T22:16:30.381Z,62.77
2023-03-11T22:18:58.856Z,62.85
2023-03-11T22:21:27.423Z,62.61
2023-03-11T22:23:55.847Z,62.30
2023-03-11T22:26:24.231Z,62.27
2023-03-11T22:28:52.635Z,61.67
2023-03-11T22:31:21.005Z,61.28
2023-03-11T22:33:49.745Z,60.88
2023-03-11T22:36:18.208Z,60.12
2023-03-11T22:38:46.767Z,60.10
2023-03-11T22:41:19.266Z,59.76
2023-03-11T22:43:47.937Z,59.46
2023-03-11T22:46:16.702Z,59.01
2023-03-11T22:48:45.074Z,58.76
2023-03-11T22:51:13.490Z,58.43
2023-03-11T22:53:42.589Z,58.52
2023-03-11T22:56:14.533Z,57.95
2023-03-11T22:58:43.007Z,57.78
2023-03-11T23:01:11.879Z,57.94
2023-03-11T23:03:40.628Z,57.72
2023-03-11T23:06:15.076Z,57.60
2023-03-11T23:08:43.663Z,57.65
2023-03-11T23:11:15.838Z,57.81
2023-03-11T23:13:44.683Z,57.59
2023-03-11T23:16:19.050Z,57.54
2023-03-11T23:18:50.274Z,57.65
2023-03-11T23:21:22.935Z,57.31
2023-03-11T23:23:52.104Z,57.52
2023-03-11T23:26:22.137Z,57.47
2023-03-11T23:28:53.911Z,57.48
2023-03-11T23:31:24.853Z,57.35
2023-03-11T23:33:53.118Z,57.72
2023-03-11T23:36:23.526Z,57.61
2023-03-11T23:38:52.065Z,57.42
2023-03-11T23:41:21.678Z,57.58
2023-03-11T23:43:50.863Z,57.76
2023-03-11T23:46:19.282Z,57.74
2023-03-11T23:48:47.721Z,57.74
2023-03-11T23:51:16.824Z,57.61
2023-03-11T23:53:45.226Z,57.79
2023-03-11T23:56:17.266Z,57.58
2023-03-11T23:58:46.378Z,57.54
